sensor_id;sensor_type;location;lat;lon;timestamp;temperature;humidity
45537;DHT22;31262;51.978;5.924;2022-11-15T00:01:31;12.30;69.70
45537;DHT22;31262;51.978;5.924;2022-11-15T00:03:56;12.30;69.90
45537;DHT22;31262;51.978;5.924;2022-11-15T00:06:22;12.40;70.00
45537;DHT22;31262;51.978;5.924;2022-11-15T00:08:47;12.50;70.10
45537;DHT22;31262;51.978;5.924;2022-11-15T00:11:13;12.50;70.00
45537;DHT22;31262;51.978;5.924;2022-11-15T00:13:39;12.50;70.00
45537;DHT22;31262;51.978;5.924;2022-11-15T00:16:04;12.60;70.00
45537;DHT22;31262;51.978;5.924;2022-11-15T00:18:30;12.70;70.00
45537;DHT22;31262;51.978;5.924;2022-11-15T00:20:56;12.60;69.90
45537;DHT22;31262;51.978;5.924;2022-11-15T00:23:21;12.70;70.00
45537;DHT22;31262;51.978;5.924;2022-11-15T00:25:47;12.60;70.10
45537;DHT22;31262;51.978;5.924;2022-11-15T00:28:12;12.60;70.20
45537;DHT22;31262;51.978;5.924;2022-11-15T00:30:38;12.60;70.30
45537;DHT22;31262;51.978;5.924;2022-11-15T00:33:04;12.60;70.50
45537;DHT22;31262;51.978;5.924;2022-11-15T00:35:31;12.50;70.50
45537;DHT22;31262;51.978;5.924;2022-11-15T00:37:56;12.50;70.60
45537;DHT22;31262;51.978;5.924;2022-11-15T00:40:22;12.50;70.70
45537;DHT22;31262;51.978;5.924;2022-11-15T00:42:47;12.50;71.00
45537;DHT22;31262;51.978;5.924;2022-11-15T00:45:13;12.40;71.20
45537;DHT22;31262;51.978;5.924;2022-11-15T00:47:38;12.30;71.40
45537;DHT22;31262;51.978;5.924;2022-11-15T00:50:04;12.30;71.70
45537;DHT22;31262;51.978;5.924;2022-11-15T00:52:29;12.30;71.90
45537;DHT22;31262;51.978;5.924;2022-11-15T00:54:55;12.30;72.00
45537;DHT22;31262;51.978;5.924;2022-11-15T00:57:20;12.40;72.10
45537;DHT22;31262;51.978;5.924;2022-11-15T00:59:46;12.40;72.10
45537;DHT22;31262;51.978;5.924;2022-11-15T01:02:11;12.40;72.10
45537;DHT22;31262;51.978;5.924;2022-11-15T01:04:37;12.40;72.10
45537;DHT22;31262;51.978;5.924;2022-11-15T01:07:02;12.50;72.00
45537;DHT22;31262;51.978;5.924;2022-11-15T01:09:28;12.50;72.00
45537;DHT22;31262;51.978;5.924;2022-11-15T01:11:53;12.50;72.00
45537;DHT22;31262;51.978;5.924;2022-11-15T01:14:19;12.60;72.00
45537;DHT22;31262;51.978;5.924;2022-11-15T01:16:44;12.70;72.00
45537;DHT22;31262;51.978;5.924;2022-11-15T01:19:10;12.70;71.90
45537;DHT22;31262;51.978;5.924;2022-11-15T01:21:35;12.60;71.90
45537;DHT22;31262;51.978;5.924;2022-11-15T01:24:01;12.70;72.70
45537;DHT22;31262;51.978;5.924;2022-11-15T01:26:26;12.70;72.10
45537;DHT22;31262;51.978;5.924;2022-11-15T01:28:52;12.70;72.20
45537;DHT22;31262;51.978;5.924;2022-11-15T01:31:19;12.80;72.20
45537;DHT22;31262;51.978;5.924;2022-11-15T01:33:45;12.70;72.20
45537;DHT22;31262;51.978;5.924;2022-11-15T01:36:11;12.80;72.40
45537;DHT22;31262;51.978;5.924;2022-11-15T01:38:37;12.70;72.50
45537;DHT22;31262;51.978;5.924;2022-11-15T01:41:03;12.70;72.50
45537;DHT22;31262;51.978;5.924;2022-11-15T01:43:35;12.70;72.70
45537;DHT22;31262;51.978;5.924;2022-11-15T01:46:22;12.70;72.90
45537;DHT22;31262;51.978;5.924;2022-11-15T01:48:49;12.70;72.90
45537;DHT22;31262;51.978;5.924;2022-11-15T01:51:16;12.70;72.90
45537;DHT22;31262;51.978;5.924;2022-11-15T01:53:43;12.60;73.00
45537;DHT22;31262;51.978;5.924;2022-11-15T01:56:11;12.70;73.20
45537;DHT22;31262;51.978;5.924;2022-11-15T01:58:37;12.60;73.20
45537;DHT22;31262;51.978;5.924;2022-11-15T02:01:03;12.70;73.20
45537;DHT22;31262;51.978;5.924;2022-11-15T02:03:32;12.70;73.30
45537;DHT22;31262;51.978;5.924;2022-11-15T02:05:59;12.80;73.40
45537;DHT22;31262;51.978;5.924;2022-11-15T02:08:25;12.80;73.30
45537;DHT22;31262;51.978;5.924;2022-11-15T02:10:50;12.80;73.20
45537;DHT22;31262;51.978;5.924;2022-11-15T02:13:16;12.80;73.10
45537;DHT22;31262;51.978;5.924;2022-11-15T02:15:55;12.90;73.00
45537;DHT22;31262;51.978;5.924;2022-11-15T02:18:28;13.00;73.00
45537;DHT22;31262;51.978;5.924;2022-11-15T02:23:47;13.10;72.90
45537;DHT22;31262;51.978;5.924;2022-11-15T02:32:13;13.30;72.40
45537;DHT22;31262;51.978;5.924;2022-11-15T02:37:05;13.40;72.10
45537;DHT22;31262;51.978;5.924;2022-11-15T02:41:58;13.40;72.00
45537;DHT22;31262;51.978;5.924;2022-11-15T02:44:32;13.50;72.00
45537;DHT22;31262;51.978;5.924;2022-11-15T02:47:00;13.50;72.00
45537;DHT22;31262;51.978;5.924;2022-11-15T02:49:40;13.60;71.90
45537;DHT22;31262;51.978;5.924;2022-11-15T02:52:06;13.60;71.80
45537;DHT22;31262;51.978;5.924;2022-11-15T02:54:32;13.60;71.70
45537;DHT22;31262;51.978;5.924;2022-11-15T02:57:04;13.60;71.70
45537;DHT22;31262;51.978;5.924;2022-11-15T03:04:43;13.70;71.80
45537;DHT22;31262;51.978;5.924;2022-11-15T03:07:18;13.70;71.80
45537;DHT22;31262;51.978;5.924;2022-11-15T03:12:12;13.60;71.90
45537;DHT22;31262;51.978;5.924;2022-11-15T03:14:53;13.70;72.10
45537;DHT22;31262;51.978;5.924;2022-11-15T03:17:30;13.70;72.20
45537;DHT22;31262;51.978;5.924;2022-11-15T03:19:59;13.60;72.50
45537;DHT22;31262;51.978;5.924;2022-11-15T03:22:27;13.60;72.70
45537;DHT22;31262;51.978;5.924;2022-11-15T03:24:54;13.50;72.80
45537;DHT22;31262;51.978;5.924;2022-11-15T03:27:21;13.50;72.90
45537;DHT22;31262;51.978;5.924;2022-11-15T03:29:50;13.50;73.00
45537;DHT22;31262;51.978;5.924;2022-11-15T03:32:18;13.50;73.20
45537;DHT22;31262;51.978;5.924;2022-11-15T03:34:47;13.50;73.20
45537;DHT22;31262;51.978;5.924;2022-11-15T03:37:14;13.60;73.30
45537;DHT22;31262;51.978;5.924;2022-11-15T03:39:41;13.60;73.40
45537;DHT22;31262;51.978;5.924;2022-11-15T03:44:51;13.60;73.40
45537;DHT22;31262;51.978;5.924;2022-11-15T03:49:49;13.60;73.70
45537;DHT22;31262;51.978;5.924;2022-11-15T03:52:17;13.50;74.10
45537;DHT22;31262;51.978;5.924;2022-11-15T03:54:50;13.50;74.50
45537;DHT22;31262;51.978;5.924;2022-11-15T03:57:15;13.40;74.60
45537;DHT22;31262;51.978;5.924;2022-11-15T03:59:41;13.40;74.80
45537;DHT22;31262;51.978;5.924;2022-11-15T04:02:06;13.40;74.90
45537;DHT22;31262;51.978;5.924;2022-11-15T04:04:32;13.40;75.10
45537;DHT22;31262;51.978;5.924;2022-11-15T04:06:57;13.40;75.30
45537;DHT22;31262;51.978;5.924;2022-11-15T04:09:23;13.40;75.40
45537;DHT22;31262;51.978;5.924;2022-11-15T04:11:48;13.40;75.70
45537;DHT22;31262;51.978;5.924;2022-11-15T04:14:14;13.30;75.90
45537;DHT22;31262;51.978;5.924;2022-11-15T04:16:39;13.30;76.20
45537;DHT22;31262;51.978;5.924;2022-11-15T04:19:05;13.30;76.60
45537;DHT22;31262;51.978;5.924;2022-11-15T04:21:49;13.30;77.10
45537;DHT22;31262;51.978;5.924;2022-11-15T04:24:33;13.30;77.30
45537;DHT22;31262;51.978;5.924;2022-11-15T04:26:59;13.30;77.90
45537;DHT22;31262;51.978;5.924;2022-11-15T04:29:24;13.30;78.30
45537;DHT22;31262;51.978;5.924;2022-11-15T04:32:03;13.30;78.40
45537;DHT22;31262;51.978;5.924;2022-11-15T04:34:29;13.30;78.50
45537;DHT22;31262;51.978;5.924;2022-11-15T04:36:54;13.20;78.50
45537;DHT22;31262;51.978;5.924;2022-11-15T04:39:39;13.30;78.60
45537;DHT22;31262;51.978;5.924;2022-11-15T04:42:04;13.40;78.80
45537;DHT22;31262;51.978;5.924;2022-11-15T04:44:30;13.30;78.90
45537;DHT22;31262;51.978;5.924;2022-11-15T04:46:55;13.30;79.10
45537;DHT22;31262;51.978;5.924;2022-11-15T04:49:21;13.30;79.10
45537;DHT22;31262;51.978;5.924;2022-11-15T04:51:46;13.40;79.20
45537;DHT22;31262;51.978;5.924;2022-11-15T04:54:12;13.40;79.10
45537;DHT22;31262;51.978;5.924;2022-11-15T04:56:37;13.40;79.00
45537;DHT22;31262;51.978;5.924;2022-11-15T04:59:03;13.50;78.90
45537;DHT22;31262;51.978;5.924;2022-11-15T05:01:28;13.50;79.00
45537;DHT22;31262;51.978;5.924;2022-11-15T05:03:54;13.50;79.00
45537;DHT22;31262;51.978;5.924;2022-11-15T05:06:38;13.50;79.00
45537;DHT22;31262;51.978;5.924;2022-11-15T05:09:03;13.50;79.00
45537;DHT22;31262;51.978;5.924;2022-11-15T05:11:29;13.50;79.00
45537;DHT22;31262;51.978;5.924;2022-11-15T05:13:54;13.50;78.90
45537;DHT22;31262;51.978;5.924;2022-11-15T05:16:20;13.60;78.80
45537;DHT22;31262;51.978;5.924;2022-11-15T05:18:45;13.70;78.50
45537;DHT22;31262;51.978;5.924;2022-11-15T05:21:12;13.80;78.40
45537;DHT22;31262;51.978;5.924;2022-11-15T05:23:38;13.90;78.20
45537;DHT22;31262;51.978;5.924;2022-11-15T05:26:04;13.90;78.00
45537;DHT22;31262;51.978;5.924;2022-11-15T05:28:30;14.00;77.80
45537;DHT22;31262;51.978;5.924;2022-11-15T05:31:02;14.10;77.60
45537;DHT22;31262;51.978;5.924;2022-11-15T05:33:28;14.00;77.40
45537;DHT22;31262;51.978;5.924;2022-11-15T05:36:36;14.10;77.40
45537;DHT22;31262;51.978;5.924;2022-11-15T05:38:43;14.00;77.50
45537;DHT22;31262;51.978;5.924;2022-11-15T05:41:08;14.00;77.60
45537;DHT22;31262;51.978;5.924;2022-11-15T05:43:35;13.90;77.70
45537;DHT22;31262;51.978;5.924;2022-11-15T05:46:01;13.90;77.80
45537;DHT22;31262;51.978;5.924;2022-11-15T05:48:28;13.90;77.90
45537;DHT22;31262;51.978;5.924;2022-11-15T05:50:53;13.80;78.00
45537;DHT22;31262;51.978;5.924;2022-11-15T05:53:19;13.90;78.20
45537;DHT22;31262;51.978;5.924;2022-11-15T05:55:46;13.80;78.20
45537;DHT22;31262;51.978;5.924;2022-11-15T05:58:11;13.80;78.20
45537;DHT22;31262;51.978;5.924;2022-11-15T06:00:37;13.80;78.30
45537;DHT22;31262;51.978;5.924;2022-11-15T06:03:02;13.80;78.30
45537;DHT22;31262;51.978;5.924;2022-11-15T06:05:28;13.80;78.40
45537;DHT22;31262;51.978;5.924;2022-11-15T06:07:56;13.80;78.40
45537;DHT22;31262;51.978;5.924;2022-11-15T06:10:22;13.80;78.50
45537;DHT22;31262;51.978;5.924;2022-11-15T06:12:55;13.80;78.50
45537;DHT22;31262;51.978;5.924;2022-11-15T06:15:21;13.80;78.60
45537;DHT22;31262;51.978;5.924;2022-11-15T06:17:46;13.70;78.70
45537;DHT22;31262;51.978;5.924;2022-11-15T06:20:12;13.70;78.80
45537;DHT22;31262;51.978;5.924;2022-11-15T06:22:37;13.70;78.70
45537;DHT22;31262;51.978;5.924;2022-11-15T06:25:03;13.80;78.70
45537;DHT22;31262;51.978;5.924;2022-11-15T06:27:28;13.80;78.70
45537;DHT22;31262;51.978;5.924;2022-11-15T06:29:54;13.70;78.50
45537;DHT22;31262;51.978;5.924;2022-11-15T06:32:19;13.80;78.50
45537;DHT22;31262;51.978;5.924;2022-11-15T06:34:45;13.80;78.60
45537;DHT22;31262;51.978;5.924;2022-11-15T06:37:10;13.80;78.70
45537;DHT22;31262;51.978;5.924;2022-11-15T06:39:36;13.80;78.80
45537;DHT22;31262;51.978;5.924;2022-11-15T06:42:01;13.80;79.00
45537;DHT22;31262;51.978;5.924;2022-11-15T06:44:26;13.70;79.10
45537;DHT22;31262;51.978;5.924;2022-11-15T06:46:52;13.70;79.80
45537;DHT22;31262;51.978;5.924;2022-11-15T06:49:17;13.60;79.20
45537;DHT22;31262;51.978;5.924;2022-11-15T06:51:43;13.70;79.20
45537;DHT22;31262;51.978;5.924;2022-11-15T06:54:08;13.70;79.40
45537;DHT22;31262;51.978;5.924;2022-11-15T06:56:34;13.70;79.50
45537;DHT22;31262;51.978;5.924;2022-11-15T06:58:59;13.70;79.60
45537;DHT22;31262;51.978;5.924;2022-11-15T07:01:25;13.70;79.60
45537;DHT22;31262;51.978;5.924;2022-11-15T07:03:50;13.70;79.60
45537;DHT22;31262;51.978;5.924;2022-11-15T07:06:16;13.70;79.70
45537;DHT22;31262;51.978;5.924;2022-11-15T07:08:41;13.70;79.70
45537;DHT22;31262;51.978;5.924;2022-11-15T07:11:07;13.80;79.80
45537;DHT22;31262;51.978;5.924;2022-11-15T07:13:33;13.70;79.80
45537;DHT22;31262;51.978;5.924;2022-11-15T07:16:02;13.70;79.80
45537;DHT22;31262;51.978;5.924;2022-11-15T07:18:28;13.70;80.00
45537;DHT22;31262;51.978;5.924;2022-11-15T07:20:53;13.70;80.10
45537;DHT22;31262;51.978;5.924;2022-11-15T07:23:19;13.70;80.10
45537;DHT22;31262;51.978;5.924;2022-11-15T07:25:44;13.70;80.30
45537;DHT22;31262;51.978;5.924;2022-11-15T07:28:10;13.70;80.40
45537;DHT22;31262;51.978;5.924;2022-11-15T07:30:35;13.70;80.60
45537;DHT22;31262;51.978;5.924;2022-11-15T07:33:01;13.70;80.90
45537;DHT22;31262;51.978;5.924;2022-11-15T07:35:27;13.60;81.20
45537;DHT22;31262;51.978;5.924;2022-11-15T07:37:57;13.50;81.60
45537;DHT22;31262;51.978;5.924;2022-11-15T07:40:23;13.60;81.70
45537;DHT22;31262;51.978;5.924;2022-11-15T07:42:49;13.50;81.70
45537;DHT22;31262;51.978;5.924;2022-11-15T07:45:22;13.50;81.80
45537;DHT22;31262;51.978;5.924;2022-11-15T07:47:48;13.50;81.90
45537;DHT22;31262;51.978;5.924;2022-11-15T07:50:14;13.50;82.00
45537;DHT22;31262;51.978;5.924;2022-11-15T07:52:39;13.40;82.10
45537;DHT22;31262;51.978;5.924;2022-11-15T07:55:05;13.40;82.20
45537;DHT22;31262;51.978;5.924;2022-11-15T07:57:31;13.50;82.40
45537;DHT22;31262;51.978;5.924;2022-11-15T07:59:56;13.40;82.30
45537;DHT22;31262;51.978;5.924;2022-11-15T08:02:22;13.50;82.40
45537;DHT22;31262;51.978;5.924;2022-11-15T08:04:47;13.50;82.40
45537;DHT22;31262;51.978;5.924;2022-11-15T08:07:13;13.50;82.30
45537;DHT22;31262;51.978;5.924;2022-11-15T08:09:38;13.50;82.30
45537;DHT22;31262;51.978;5.924;2022-11-15T08:12:04;13.60;82.50
45537;DHT22;31262;51.978;5.924;2022-11-15T08:14:29;13.60;82.50
45537;DHT22;31262;51.978;5.924;2022-11-15T08:16:55;13.60;82.50
45537;DHT22;31262;51.978;5.924;2022-11-15T08:19:20;13.60;82.60
45537;DHT22;31262;51.978;5.924;2022-11-15T08:21:46;13.60;82.90
45537;DHT22;31262;51.978;5.924;2022-11-15T08:24:11;13.60;83.10
45537;DHT22;31262;51.978;5.924;2022-11-15T08:26:37;13.50;83.10
45537;DHT22;31262;51.978;5.924;2022-11-15T08:29:02;13.60;83.20
45537;DHT22;31262;51.978;5.924;2022-11-15T08:31:28;13.60;83.20
45537;DHT22;31262;51.978;5.924;2022-11-15T08:33:55;13.60;83.10
45537;DHT22;31262;51.978;5.924;2022-11-15T08:36:20;13.60;83.10
45537;DHT22;31262;51.978;5.924;2022-11-15T08:38:46;13.60;83.10
45537;DHT22;31262;51.978;5.924;2022-11-15T08:41:13;13.70;83.10
45537;DHT22;31262;51.978;5.924;2022-11-15T08:43:39;13.70;83.00
45537;DHT22;31262;51.978;5.924;2022-11-15T08:46:04;13.70;83.00
45537;DHT22;31262;51.978;5.924;2022-11-15T08:48:30;13.70;83.10
45537;DHT22;31262;51.978;5.924;2022-11-15T08:50:55;13.70;83.00
45537;DHT22;31262;51.978;5.924;2022-11-15T08:53:21;13.70;83.00
45537;DHT22;31262;51.978;5.924;2022-11-15T08:55:47;13.70;83.10
45537;DHT22;31262;51.978;5.924;2022-11-15T08:58:12;13.70;83.20
45537;DHT22;31262;51.978;5.924;2022-11-15T09:00:38;13.70;83.40
45537;DHT22;31262;51.978;5.924;2022-11-15T09:03:04;13.70;84.00
45537;DHT22;31262;51.978;5.924;2022-11-15T09:05:30;13.70;83.50
45537;DHT22;31262;51.978;5.924;2022-11-15T09:07:55;13.60;83.50
45537;DHT22;31262;51.978;5.924;2022-11-15T09:10:21;13.80;83.60
45537;DHT22;31262;51.978;5.924;2022-11-15T09:12:47;13.80;83.60
45537;DHT22;31262;51.978;5.924;2022-11-15T09:15:14;13.80;83.60
45537;DHT22;31262;51.978;5.924;2022-11-15T09:17:39;13.80;84.10
45537;DHT22;31262;51.978;5.924;2022-11-15T09:20:05;13.80;83.40
45537;DHT22;31262;51.978;5.924;2022-11-15T09:22:31;13.80;83.40
45537;DHT22;31262;51.978;5.924;2022-11-15T09:24:56;13.80;83.20
45537;DHT22;31262;51.978;5.924;2022-11-15T09:27:22;13.80;83.20
45537;DHT22;31262;51.978;5.924;2022-11-15T09:29:47;13.80;83.20
45537;DHT22;31262;51.978;5.924;2022-11-15T09:32:13;13.80;83.20
45537;DHT22;31262;51.978;5.924;2022-11-15T09:34:38;13.80;83.10
45537;DHT22;31262;51.978;5.924;2022-11-15T09:37:04;13.80;83.10
45537;DHT22;31262;51.978;5.924;2022-11-15T09:39:29;13.80;83.10
45537;DHT22;31262;51.978;5.924;2022-11-15T09:42:00;13.80;83.00
45537;DHT22;31262;51.978;5.924;2022-11-15T09:49:27;13.80;82.80
45537;DHT22;31262;51.978;5.924;2022-11-15T09:51:54;13.80;82.80
45537;DHT22;31262;51.978;5.924;2022-11-15T09:56:48;13.90;82.80
45537;DHT22;31262;51.978;5.924;2022-11-15T10:02:13;13.90;82.90
45537;DHT22;31262;51.978;5.924;2022-11-15T10:04:42;14.10;82.70
45537;DHT22;31262;51.978;5.924;2022-11-15T10:07:25;14.40;82.30
45537;DHT22;31262;51.978;5.924;2022-11-15T10:10:03;14.50;81.90
45537;DHT22;31262;51.978;5.924;2022-11-15T10:12:29;14.70;81.10
45537;DHT22;31262;51.978;5.924;2022-11-15T10:15:03;14.80;80.60
45537;DHT22;31262;51.978;5.924;2022-11-15T10:17:43;14.80;80.50
45537;DHT22;31262;51.978;5.924;2022-11-15T10:20:25;14.90;80.40
45537;DHT22;31262;51.978;5.924;2022-11-15T10:30:37;14.90;78.80
45537;DHT22;31262;51.978;5.924;2022-11-15T10:35:47;14.90;78.90
45537;DHT22;31262;51.978;5.924;2022-11-15T10:38:12;14.90;78.30
45537;DHT22;31262;51.978;5.924;2022-11-15T10:40:39;14.80;77.50
45537;DHT22;31262;51.978;5.924;2022-11-15T10:43:15;14.80;77.80
45537;DHT22;31262;51.978;5.924;2022-11-15T10:45:41;14.80;78.00
45537;DHT22;31262;51.978;5.924;2022-11-15T10:50:45;15.10;76.70
45537;DHT22;31262;51.978;5.924;2022-11-15T10:53:21;15.30;76.80
45537;DHT22;31262;51.978;5.924;2022-11-15T10:55:48;15.70;75.10
45537;DHT22;31262;51.978;5.924;2022-11-15T11:00:46;16.40;73.00
45537;DHT22;31262;51.978;5.924;2022-11-15T11:03:27;16.80;71.80
45537;DHT22;31262;51.978;5.924;2022-11-15T11:08:56;17.20;66.70
45537;DHT22;31262;51.978;5.924;2022-11-15T11:11:22;17.20;66.00
45537;DHT22;31262;51.978;5.924;2022-11-15T11:13:47;17.20;65.80
45537;DHT22;31262;51.978;5.924;2022-11-15T11:21:08;17.20;66.60
45537;DHT22;31262;51.978;5.924;2022-11-15T11:36:27;18.30;61.40
45537;DHT22;31262;51.978;5.924;2022-11-15T11:39:00;18.50;59.00
45537;DHT22;31262;51.978;5.924;2022-11-15T11:44:40;19.10;56.80
45537;DHT22;31262;51.978;5.924;2022-11-15T11:49:41;19.50;54.70
45537;DHT22;31262;51.978;5.924;2022-11-15T11:52:13;19.70;53.70
45537;DHT22;31262;51.978;5.924;2022-11-15T11:57:30;20.20;53.10
45537;DHT22;31262;51.978;5.924;2022-11-15T12:00:03;20.60;51.90
45537;DHT22;31262;51.978;5.924;2022-11-15T12:02:37;20.80;51.50
45537;DHT22;31262;51.978;5.924;2022-11-15T12:05:50;20.80;49.30
45537;DHT22;31262;51.978;5.924;2022-11-15T12:07:49;20.50;49.60
45537;DHT22;31262;51.978;5.924;2022-11-15T12:10:23;20.40;50.30
45537;DHT22;31262;51.978;5.924;2022-11-15T12:15:22;20.50;48.30
45537;DHT22;31262;51.978;5.924;2022-11-15T12:17:48;20.50;48.00
45537;DHT22;31262;51.978;5.924;2022-11-15T12:20:16;20.50;48.20
45537;DHT22;31262;51.978;5.924;2022-11-15T12:23:28;20.50;48.20
45537;DHT22;31262;51.978;5.924;2022-11-15T12:28:02;20.70;49.00
45537;DHT22;31262;51.978;5.924;2022-11-15T12:30:38;20.90;49.20
45537;DHT22;31262;51.978;5.924;2022-11-15T12:33:05;21.10;49.10
45537;DHT22;31262;51.978;5.924;2022-11-15T12:35:40;21.20;48.50
45537;DHT22;31262;51.978;5.924;2022-11-15T12:38:51;21.20;48.60
45537;DHT22;31262;51.978;5.924;2022-11-15T12:43:40;20.80;47.90
45537;DHT22;31262;51.978;5.924;2022-11-15T12:46:10;20.50;47.60
45537;DHT22;31262;51.978;5.924;2022-11-15T12:51:04;20.10;48.30
45537;DHT22;31262;51.978;5.924;2022-11-15T12:53:30;19.90;48.70
45537;DHT22;31262;51.978;5.924;2022-11-15T12:58:43;20.10;49.30
45537;DHT22;31262;51.978;5.924;2022-11-15T13:01:14;20.20;49.10
45537;DHT22;31262;51.978;5.924;2022-11-15T13:06:44;20.00;49.20
45537;DHT22;31262;51.978;5.924;2022-11-15T13:11:55;19.80;49.60
45537;DHT22;31262;51.978;5.924;2022-11-15T13:17:23;19.50;49.20
45537;DHT22;31262;51.978;5.924;2022-11-15T13:19:52;19.30;49.70
45537;DHT22;31262;51.978;5.924;2022-11-15T13:22:18;19.20;50.00
45537;DHT22;31262;51.978;5.924;2022-11-15T13:25:03;19.10;50.30
45537;DHT22;31262;51.978;5.924;2022-11-15T13:27:28;19.10;50.50
45537;DHT22;31262;51.978;5.924;2022-11-15T13:29:54;19.00;50.50
45537;DHT22;31262;51.978;5.924;2022-11-15T13:32:20;18.90;50.80
45537;DHT22;31262;51.978;5.924;2022-11-15T13:34:47;18.70;50.60
45537;DHT22;31262;51.978;5.924;2022-11-15T13:39:48;18.50;51.50
45537;DHT22;31262;51.978;5.924;2022-11-15T13:42:17;18.40;51.80
45537;DHT22;31262;51.978;5.924;2022-11-15T13:44:59;18.30;51.90
45537;DHT22;31262;51.978;5.924;2022-11-15T13:47:25;18.20;52.10
45537;DHT22;31262;51.978;5.924;2022-11-15T13:49:58;18.10;52.10
45537;DHT22;31262;51.978;5.924;2022-11-15T13:52:26;18.10;52.50
45537;DHT22;31262;51.978;5.924;2022-11-15T13:54:56;18.00;52.70
45537;DHT22;31262;51.978;5.924;2022-11-15T14:00:39;17.90;53.10
45537;DHT22;31262;51.978;5.924;2022-11-15T14:03:10;17.90;53.30
45537;DHT22;31262;51.978;5.924;2022-11-15T14:05:39;17.90;53.20
45537;DHT22;31262;51.978;5.924;2022-11-15T14:08:38;17.80;53.40
45537;DHT22;31262;51.978;5.924;2022-11-15T14:13:34;17.70;53.80
45537;DHT22;31262;51.978;5.924;2022-11-15T14:16:20;17.70;54.00
45537;DHT22;31262;51.978;5.924;2022-11-15T14:18:47;17.70;54.10
45537;DHT22;31262;51.978;5.924;2022-11-15T14:21:13;17.70;54.30
45537;DHT22;31262;51.978;5.924;2022-11-15T14:23:39;17.60;54.20
45537;DHT22;31262;51.978;5.924;2022-11-15T14:26:05;17.60;54.30
45537;DHT22;31262;51.978;5.924;2022-11-15T14:28:33;17.50;54.30
45537;DHT22;31262;51.978;5.924;2022-11-15T14:31:04;17.40;54.50
45537;DHT22;31262;51.978;5.924;2022-11-15T14:33:33;17.40;54.60
45537;DHT22;31262;51.978;5.924;2022-11-15T14:36:03;17.30;54.80
45537;DHT22;31262;51.978;5.924;2022-11-15T14:38:28;17.30;55.00
45537;DHT22;31262;51.978;5.924;2022-11-15T14:40:54;17.30;55.20
45537;DHT22;31262;51.978;5.924;2022-11-15T14:43:21;17.20;55.10
45537;DHT22;31262;51.978;5.924;2022-11-15T14:45:46;17.20;55.30
45537;DHT22;31262;51.978;5.924;2022-11-15T14:48:12;17.20;55.40
45537;DHT22;31262;51.978;5.924;2022-11-15T14:50:37;17.10;55.40
45537;DHT22;31262;51.978;5.924;2022-11-15T14:53:04;17.00;55.50
45537;DHT22;31262;51.978;5.924;2022-11-15T14:55:33;17.00;55.70
45537;DHT22;31262;51.978;5.924;2022-11-15T14:58:01;16.90;55.80
45537;DHT22;31262;51.978;5.924;2022-11-15T15:00:29;16.90;55.90
45537;DHT22;31262;51.978;5.924;2022-11-15T15:02:55;16.80;55.90
45537;DHT22;31262;51.978;5.924;2022-11-15T15:05:25;16.80;56.10
45537;DHT22;31262;51.978;5.924;2022-11-15T15:07:51;16.80;56.20
45537;DHT22;31262;51.978;5.924;2022-11-15T15:10:18;16.80;56.50
45537;DHT22;31262;51.978;5.924;2022-11-15T15:12:44;16.70;56.50
45537;DHT22;31262;51.978;5.924;2022-11-15T15:15:13;16.70;56.50
45537;DHT22;31262;51.978;5.924;2022-11-15T15:17:39;16.70;56.60
45537;DHT22;31262;51.978;5.924;2022-11-15T15:20:05;16.60;56.60
45537;DHT22;31262;51.978;5.924;2022-11-15T15:22:31;16.60;56.70
45537;DHT22;31262;51.978;5.924;2022-11-15T15:24:56;16.60;56.70
45537;DHT22;31262;51.978;5.924;2022-11-15T15:27:22;16.60;56.80
45537;DHT22;31262;51.978;5.924;2022-11-15T15:29:47;16.50;56.70
45537;DHT22;31262;51.978;5.924;2022-11-15T15:32:13;16.50;56.70
45537;DHT22;31262;51.978;5.924;2022-11-15T15:34:38;16.50;56.90
45537;DHT22;31262;51.978;5.924;2022-11-15T15:37:08;16.40;57.20
45537;DHT22;31262;51.978;5.924;2022-11-15T15:39:34;16.40;57.30
45537;DHT22;31262;51.978;5.924;2022-11-15T15:41:59;16.40;57.40
45537;DHT22;31262;51.978;5.924;2022-11-15T15:44:25;16.40;57.60
45537;DHT22;31262;51.978;5.924;2022-11-15T15:46:50;16.40;57.40
45537;DHT22;31262;51.978;5.924;2022-11-15T15:49:16;16.30;57.50
45537;DHT22;31262;51.978;5.924;2022-11-15T15:51:41;16.40;57.60
45537;DHT22;31262;51.978;5.924;2022-11-15T15:54:07;16.40;57.30
45537;DHT22;31262;51.978;5.924;2022-11-15T15:56:32;16.40;57.30
45537;DHT22;31262;51.978;5.924;2022-11-15T15:58:58;16.30;57.40
45537;DHT22;31262;51.978;5.924;2022-11-15T16:01:23;16.30;57.50
45537;DHT22;31262;51.978;5.924;2022-11-15T16:03:50;16.30;57.60
45537;DHT22;31262;51.978;5.924;2022-11-15T16:06:48;16.30;57.80
45537;DHT22;31262;51.978;5.924;2022-11-15T16:09:13;16.30;57.90
45537;DHT22;31262;51.978;5.924;2022-11-15T16:11:40;16.20;58.00
45537;DHT22;31262;51.978;5.924;2022-11-15T16:14:06;16.20;58.20
45537;DHT22;31262;51.978;5.924;2022-11-15T16:16:32;16.20;58.40
45537;DHT22;31262;51.978;5.924;2022-11-15T16:18:58;16.20;58.50
45537;DHT22;31262;51.978;5.924;2022-11-15T16:21:26;16.20;58.60
45537;DHT22;31262;51.978;5.924;2022-11-15T16:23:52;16.10;58.60
45537;DHT22;31262;51.978;5.924;2022-11-15T16:28:46;16.10;58.90
45537;DHT22;31262;51.978;5.924;2022-11-15T16:31:12;16.10;59.10
45537;DHT22;31262;51.978;5.924;2022-11-15T16:33:38;16.00;59.10
45537;DHT22;31262;51.978;5.924;2022-11-15T16:36:04;16.00;59.30
45537;DHT22;31262;51.978;5.924;2022-11-15T16:38:31;16.00;59.40
45537;DHT22;31262;51.978;5.924;2022-11-15T16:40:56;16.00;59.70
45537;DHT22;31262;51.978;5.924;2022-11-15T16:43:22;16.00;59.80
45537;DHT22;31262;51.978;5.924;2022-11-15T16:45:48;16.00;59.90
45537;DHT22;31262;51.978;5.924;2022-11-15T16:50:45;16.00;60.10
45537;DHT22;31262;51.978;5.924;2022-11-15T16:53:11;16.00;60.20
45537;DHT22;31262;51.978;5.924;2022-11-15T16:55:37;16.00;60.30
45537;DHT22;31262;51.978;5.924;2022-11-15T16:58:02;16.00;60.40
45537;DHT22;31262;51.978;5.924;2022-11-15T17:00:28;15.90;60.50
45537;DHT22;31262;51.978;5.924;2022-11-15T17:02:53;15.90;60.50
45537;DHT22;31262;51.978;5.924;2022-11-15T17:05:21;16.00;60.60
45537;DHT22;31262;51.978;5.924;2022-11-15T17:07:48;16.00;60.60
45537;DHT22;31262;51.978;5.924;2022-11-15T17:10:14;16.10;60.70
45537;DHT22;31262;51.978;5.924;2022-11-15T17:12:40;16.10;60.50
45537;DHT22;31262;51.978;5.924;2022-11-15T17:15:06;16.10;60.70
45537;DHT22;31262;51.978;5.924;2022-11-15T17:17:31;16.10;60.70
45537;DHT22;31262;51.978;5.924;2022-11-15T17:19:57;16.20;60.70
45537;DHT22;31262;51.978;5.924;2022-11-15T17:22:23;16.30;60.70
45537;DHT22;31262;51.978;5.924;2022-11-15T17:24:49;16.30;60.50
45537;DHT22;31262;51.978;5.924;2022-11-15T17:27:14;16.50;60.60
45537;DHT22;31262;51.978;5.924;2022-11-15T17:29:40;16.50;60.40